createdAt,value
2023-02-04T00:00:20.028Z,79.46
2023-02-04T00:02:47.992Z,79.61
2023-02-04T00:05:18.091Z,79.19
2023-02-04T00:07:47.469Z,79.19
2023-02-04T00:10:15.671Z,79.45
2023-02-04T00:12:43.719Z,79.38
2023-02-04T00:15:11.836Z,79.12
2023-02-04T00:17:39.709Z,79.54
2023-02-04T00:20:08.406Z,79.10
2023-02-04T00:22:36.406Z,79.27
2023-02-04T00:25:06.014Z,79.44
2023-02-04T00:27:34.091Z,79.18
2023-02-04T00:30:02.041Z,79.25
2023-02-04T00:32:29.888Z,79.33
2023-02-04T00:34:57.806Z,79.40
2023-02-04T00:37:26.124Z,78.93
2023-02-04T00:39:53.950Z,79.43
2023-02-04T00:42:23.286Z,79.53
2023-02-04T00:44:51.179Z,79.70
2023-02-04T00:47:19.063Z,79.39
2023-02-04T00:49:46.990Z,79.73
2023-02-04T00:52:15.042Z,79.71
2023-02-04T00:54:43.209Z,79.51
2023-02-04T00:57:11.193Z,79.49
2023-02-04T00:59:40.395Z,80.02
2023-02-04T01:02:08.408Z,79.70
2023-02-04T01:04:36.455Z,79.69
2023-02-04T01:07:04.304Z,79.82
2023-02-04T01:09:32.226Z,79.62
2023-02-04T01:12:00.221Z,79.85
2023-02-04T01:14:28.089Z,79.63
2023-02-04T01:16:57.392Z,79.68
2023-02-04T01:19:25.328Z,79.75
2023-02-04T01:21:53.209Z,79.67
2023-02-04T01:24:21.082Z,79.79
2023-02-04T01:26:48.991Z,79.71
2023-02-04T01:29:16.804Z,79.61
2023-02-04T01:31:44.922Z,79.72
2023-02-04T01:34:14.278Z,79.62
2023-02-04T01:36:42.139Z,79.94
2023-02-04T01:39:10.147Z,79.95
2023-02-04T01:41:38.331Z,79.67
2023-02-04T01:44:06.742Z,80.14
2023-02-04T01:46:37.483Z,79.66
2023-02-04T01:49:06.435Z,79.64
2023-02-04T01:51:37.192Z,79.97
2023-02-04T01:54:05.430Z,80.31
2023-02-04T01:56:33.522Z,79.88
2023-02-04T01:59:01.533Z,80.07
2023-02-04T02:01:39.038Z,80.07
2023-02-04T02:04:06.993Z,80.61
2023-02-04T02:06:37.152Z,80.37
2023-02-04T02:09:05.337Z,80.56
2023-02-04T02:11:33.952Z,80.96
2023-02-04T02:14:02.483Z,80.71
2023-02-04T02:16:30.609Z,81.09
2023-02-04T02:19:00.013Z,80.73
2023-02-04T02:21:36.249Z,81.52
2023-02-04T02:24:26.819Z,81.41
2023-02-04T02:26:55.786Z,81.41
2023-02-04T02:29:24.926Z,81.32
2023-02-04T02:31:53.399Z,81.61
2023-02-04T02:34:21.415Z,81.55
2023-02-04T02:36:49.467Z,81.68
2023-02-04T02:39:19.220Z,81.63
2023-02-04T02:41:47.385Z,81.47
2023-02-04T02:44:18.412Z,82.20
2023-02-04T02:46:46.857Z,82.07
2023-02-04T02:49:17.188Z,81.79
2023-02-04T02:51:45.668Z,81.93
2023-02-04T02:54:24.317Z,82.00
2023-02-04T02:56:52.868Z,82.19
2023-02-04T02:59:21.392Z,82.43
2023-02-04T03:01:52.118Z,82.22
2023-02-04T03:04:21.659Z,82.12
2023-02-04T03:06:50.637Z,82.25
2023-02-04T03:09:18.770Z,82.29
2023-02-04T03:11:48.361Z,82.47
2023-02-04T03:14:16.481Z,81.86
2023-02-04T03:16:45.318Z,82.43
2023-02-04T03:19:13.840Z,82.08
2023-02-04T03:21:42.582Z,81.92
2023-02-04T03:24:10.815Z,81.81
2023-02-04T03:26:39.329Z,82.21
2023-02-04T03:29:10.418Z,82.15
2023-02-04T03:31:39.032Z,81.92
2023-02-04T03:34:07.452Z,81.70
2023-02-04T03:36:36.594Z,81.66
2023-02-04T03:39:05.017Z,81.52
2023-02-04T03:41:32.975Z,81.58
2023-02-04T03:44:00.796Z,81.51
2023-02-04T03:46:30.134Z,81.61
2023-02-04T03:48:58.094Z,82.03
2023-02-04T03:51:26.150Z,81.93
2023-02-04T03:53:54.112Z,82.07
2023-02-04T03:56:22.255Z,82.55
2023-02-04T03:58:50.063Z,82.58
2023-02-04T04:01:18.074Z,82.33
2023-02-04T04:03:47.480Z,81.86
2023-02-04T04:06:15.379Z,82.35
2023-02-04T04:08:43.361Z,81.96
2023-02-04T04:11:11.363Z,81.98
2023-02-04T04:13:39.394Z,82.39
2023-02-04T04:16:09.221Z,82.34
2023-02-04T04:18:37.282Z,82.25
2023-02-04T04:21:06.876Z,82.41
2023-02-04T04:23:35.279Z,82.20
2023-02-04T04:26:03.186Z,82.53
2023-02-04T04:28:31.075Z,82.83
2023-02-04T04:30:59.139Z,82.44
2023-02-04T04:33:27.095Z,82.38
2023-02-04T04:35:54.867Z,83.05
2023-02-04T04:38:24.343Z,82.80
2023-02-04T04:40:52.331Z,82.77
2023-02-04T04:43:21.017Z,82.56
2023-02-04T04:45:49.048Z,82.59
2023-02-04T04:48:17.084Z,83.17
2023-02-04T04:50:44.899Z,82.75
2023-02-04T04:53:12.837Z,82.99
2023-02-04T04:55:42.298Z,83.04
2023-02-04T04:58:10.276Z,83.26
2023-02-04T05:00:38.224Z,83.31
2023-02-04T05:03:06.257Z,83.66
2023-02-04T05:05:34.180Z,84.13
2023-02-04T05:08:02.153Z,84.10
2023-02-04T05:10:30.588Z,83.78
2023-02-04T05:12:59.978Z,83.85
2023-02-04T05:15:27.919Z,83.48
2023-02-04T05:17:55.925Z,83.80
2023-02-04T05:20:23.710Z,83.90
2023-02-04T05:22:51.734Z,83.67
2023-02-04T05:25:19.648Z,83.50
2023-02-04T05:27:47.533Z,83.83
2023-02-04T05:30:17.520Z,83.97
2023-02-04T05:32:45.464Z,83.63
2023-02-04T05:35:13.268Z,83.82
2023-02-04T05:37:41.181Z,83.72
2023-02-04T05:40:10.130Z,83.96
2023-02-04T05:42:37.974Z,83.92
2023-02-04T05:45:06.520Z,83.99
2023-02-04T05:47:35.810Z,84.12
2023-02-04T05:50:03.663Z,83.89
2023-02-04T05:52:31.599Z,83.88
2023-02-04T05:54:59.549Z,83.97
2023-02-04T05:57:27.410Z,84.12
2023-02-04T05:59:55.378Z,83.67
2023-02-04T06:02:23.274Z,83.91
2023-02-04T06:04:52.899Z,83.71
2023-02-04T06:07:20.973Z,83.94
2023-02-04T06:09:48.844Z,83.98
2023-02-04T06:12:16.759Z,84.03
2023-02-04T06:14:44.694Z,84.28
2023-02-04T06:17:12.596Z,84.16
2023-02-04T06:19:40.407Z,83.83
2023-02-04T06:22:09.826Z,84.14
2023-02-04T06:24:37.671Z,84.19
2023-02-04T06:27:05.525Z,84.12
2023-02-04T06:29:33.942Z,84.02
2023-02-04T06:32:01.857Z,84.09
2023-02-04T06:34:32.833Z,84.56
2023-02-04T06:37:00.943Z,84.18
2023-02-04T06:39:30.455Z,84.53
2023-02-04T06:41:58.518Z,84.47
2023-02-04T06:44:26.536Z,84.46
2023-02-04T06:46:54.363Z,84.26
2023-02-04T06:49:22.213Z,84.38
2023-02-04T06:51:50.783Z,84.34
2023-02-04T06:54:19.020Z,84.42
2023-02-04T06:56:48.262Z,84.38
2023-02-04T06:59:16.315Z,84.68
2023-02-04T07:01:44.207Z,84.50
2023-02-04T07:04:12.304Z,84.73
2023-02-04T07:06:40.285Z,84.44
2023-02-04T07:09:08.154Z,84.55
2023-02-04T07:11:36.004Z,84.75
2023-02-04T07:14:05.567Z,84.92
2023-02-04T07:16:33.470Z,84.84
2023-02-04T07:19:01.306Z,85.20
2023-02-04T07:21:29.458Z,84.98
2023-02-04T07:23:57.291Z,84.60
2023-02-04T07:26:25.201Z,85.10
2023-02-04T07:28:53.487Z,84.98
2023-02-04T07:31:22.788Z,85.13
2023-02-04T07:33:50.717Z,85.03
2023-02-04T07:36:18.802Z,85.28
2023-02-04T07:38:46.651Z,85.27
2023-02-04T07:41:14.479Z,85.34
2023-02-04T07:43:42.795Z,85.37
2023-02-04T07:46:10.643Z,85.45
2023-02-04T07:48:39.886Z,85.65
2023-02-04T07:51:08.386Z,85.85
2023-02-04T07:53:36.202Z,85.75
2023-02-04T07:56:04.117Z,85.66
2023-02-04T07:58:32.379Z,85.83
2023-02-04T08:01:01.321Z,85.84
2023-02-04T08:03:29.456Z,86.15
2023-02-04T08:05:58.838Z,85.83
2023-02-04T08:08:27.026Z,85.95
2023-02-04T08:10:54.872Z,86.36
2023-02-04T08:13:22.916Z,86.76
2023-02-04T08:15:50.783Z,88.76
2023-02-04T08:18:18.621Z,89.63
2023-02-04T08:20:46.648Z,90.18
2023-02-04T08:23:15.818Z,90.52
2023-02-04T08:25:45.550Z,91.74
2023-02-04T08:28:13.681Z,92.28
2023-02-04T08:30:41.659Z,93.16
2023-02-04T08:33:09.492Z,92.80
2023-02-04T08:35:37.400Z,92.76
2023-02-04T08:38:05.346Z,92.11
2023-02-04T08:40:34.743Z,91.51
2023-02-04T08:43:02.896Z,90.81
2023-02-04T08:45:30.812Z,90.05
2023-02-04T08:47:59.034Z,89.44
2023-02-04T08:50:28.931Z,88.75
2023-02-04T08:52:56.802Z,87.38
2023-02-04T08:55:24.640Z,85.99
2023-02-04T08:57:54.150Z,85.22
2023-02-04T09:00:22.509Z,85.07
2023-02-04T09:02:50.335Z,83.95
2023-02-04T09:05:18.498Z,82.17
2023-02-04T09:07:46.496Z,81.70
2023-02-04T09:10:14.342Z,80.69
2023-02-04T09:12:42.901Z,79.59
2023-02-04T09:15:12.848Z,78.51
2023-02-04T09:17:42.344Z,77.97
2023-02-04T09:20:12.446Z,77.21
2023-02-04T09:22:40.313Z,77.13
2023-02-04T09:25:09.284Z,76.36
2023-02-04T09:27:37.411Z,75.66
2023-02-04T09:30:05.815Z,74.25
2023-02-04T09:32:35.004Z,73.59
2023-02-04T09:35:03.143Z,73.10
2023-02-04T09:37:31.003Z,73.10
2023-02-04T09:39:58.834Z,72.25
2023-02-04T09:42:28.000Z,71.46
2023-02-04T09:44:56.025Z,71.04
2023-02-04T09:47:26.463Z,70.45
2023-02-04T09:49:56.280Z,70.18
2023-02-04T09:52:24.778Z,70.06
2023-02-04T09:54:52.628Z,69.21
2023-02-04T09:57:22.049Z,68.42
2023-02-04T09:59:52.827Z,68.13
2023-02-04T10:02:25.743Z,66.61
2023-02-04T10:04:58.931Z,66.52
2023-02-04T10:07:28.048Z,67.00
2023-02-04T10:09:56.737Z,66.76
2023-02-04T10:12:24.624Z,66.22
2023-02-04T10:14:53.212Z,66.16
2023-02-04T10:17:23.495Z,65.99
2023-02-04T10:19:51.577Z,65.89
2023-02-04T10:22:23.887Z,65.64
2023-02-04T10:24:51.766Z,65.37
2023-02-04T10:27:19.786Z,65.52
2023-02-04T10:29:57.477Z,64.77
2023-02-04T10:32:30.404Z,64.61
2023-02-04T10:35:00.212Z,64.59
2023-02-04T10:37:30.690Z,64.26
2023-02-04T10:39:58.771Z,64.00
2023-02-04T10:42:28.542Z,63.22
2023-02-04T10:44:56.894Z,63.06
2023-02-04T10:47:27.260Z,63.11
2023-02-04T10:49:57.355Z,62.69
2023-02-04T10:52:31.145Z,62.12
2023-02-04T10:54:59.637Z,62.11
2023-02-04T10:57:30.363Z,61.65
2023-02-04T11:00:02.717Z,61.18
2023-02-04T11:02:43.459Z,60.86
2023-02-04T11:05:17.239Z,60.99
2023-02-04T11:07:46.498Z,61.43
2023-02-04T11:10:19.684Z,60.99
2023-02-04T11:12:59.932Z,60.73
2023-02-04T11:15:50.395Z,60.70
2023-02-04T11:18:31.153Z,61.80
2023-02-04T11:21:00.615Z,61.90
2023-02-04T11:23:36.281Z,61.89
2023-02-04T11:26:09.170Z,61.39
2023-02-04T11:28:46.936Z,61.12
2023-02-04T11:31:27.789Z,61.70
2023-02-04T11:34:10.661Z,61.28
2023-02-04T11:36:52.701Z,60.89
2023-02-04T11:39:20.735Z,60.96
2023-02-04T11:41:50.128Z,60.86
2023-02-04T11:44:19.730Z,60.04
2023-02-04T11:46:54.632Z,59.74
2023-02-04T11:49:24.770Z,60.14
2023-02-04T11:51:53.140Z,59.76
2023-02-04T11:54:21.470Z,60.31
2023-02-04T11:56:54.447Z,59.88
2023-02-04T11:59:22.532Z,59.91
2023-02-04T12:01:50.350Z,60.45
2023-02-04T12:04:25.203Z,60.56
2023-02-04T12:07:01.559Z,60.57
2023-02-04T12:09:31.255Z,61.04
2023-02-04T12:12:02.352Z,61.80
2023-02-04T12:14:32.667Z,61.92
2023-02-04T12:17:00.966Z,61.91
2023-02-04T12:19:29.348Z,62.54
2023-02-04T12:21:57.492Z,62.73
2023-02-04T12:24:25.298Z,62.38
2023-02-04T12:26:53.143Z,62.83
2023-02-04T12:29:22.533Z,62.42
2023-02-04T12:31:50.478Z,62.33
2023-02-04T12:34:18.384Z,61.67
2023-02-04T12:36:46.525Z,61.75
2023-02-04T12:39:14.316Z,61.66
2023-02-04T12:41:42.128Z,61.51
2023-02-04T12:44:10.171Z,60.97
2023-02-04T12:46:40.073Z,61.36
2023-02-04T12:49:09.650Z,60.53
2023-02-04T12:51:37.903Z,60.23
2023-02-04T12:54:05.881Z,60.06
2023-02-04T12:56:33.830Z,59.28
2023-02-04T12:59:01.809Z,59.81
2023-02-04T13:01:29.664Z,59.68
2023-02-04T13:03:59.233Z,60.18
2023-02-04T13:06:27.359Z,60.78
2023-02-04T13:08:55.192Z,60.29
2023-02-04T13:11:23.173Z,60.43
2023-02-04T13:13:51.320Z,61.23
2023-02-04T13:16:19.494Z,61.15
2023-02-04T13:18:47.398Z,61.32
2023-02-04T13:21:17.704Z,61.29
2023-02-04T13:23:45.505Z,61.51
2023-02-04T13:26:13.319Z,61.95
2023-02-04T13:28:41.421Z,61.73
2023-02-04T13:31:09.423Z,61.99
2023-02-04T13:33:37.374Z,61.90
2023-02-04T13:36:06.404Z,62.69
2023-02-04T13:38:36.001Z,62.98
2023-02-04T13:41:03.981Z,62.84
2023-02-04T13:43:31.957Z,62.94
2023-02-04T13:46:00.274Z,63.01
2023-02-04T13:48:28.152Z,63.71
2023-02-04T13:50:56.287Z,63.78
2023-02-04T13:53:24.772Z,64.04
2023-02-04T13:55:53.935Z,63.83
2023-02-04T13:58:21.967Z,64.05
2023-02-04T14:00:49.802Z,64.31
2023-02-04T14:03:17.744Z,64.62
2023-02-04T14:05:45.732Z,64.36
2023-02-04T14:08:13.541Z,64.41
2023-02-04T14:10:41.372Z,64.72
2023-02-04T14:13:11.322Z,64.99
2023-02-04T14:15:41.560Z,64.77
2023-02-04T14:18:09.978Z,64.95
2023-02-04T14:20:37.974Z,64.99
2023-02-04T14:23:07.212Z,64.98
2023-02-04T14:25:35.282Z,65.20
2023-02-04T14:28:04.177Z,65.31
2023-02-04T14:30:34.262Z,65.74
2023-02-04T14:33:02.594Z,65.71
2023-02-04T14:35:30.699Z,65.61
2023-02-04T14:37:58.869Z,65.60
2023-02-04T14:40:26.901Z,65.88
2023-02-04T14:42:54.927Z,66.30
2023-02-04T14:45:22.794Z,66.26
2023-02-04T14:47:55.380Z,66.48
2023-02-04T14:50:27.110Z,66.60
2023-02-04T14:52:56.989Z,66.55
2023-02-04T14:55:24.841Z,66.78
2023-02-04T14:57:52.922Z,66.83
2023-02-04T15:00:21.963Z,66.91
2023-02-04T15:02:51.204Z,66.96
2023-02-04T15:05:19.179Z,66.70
2023-02-04T15:07:47.188Z,67.20
2023-02-04T15:10:16.360Z,67.31
2023-02-04T15:12:44.358Z,67.29
2023-02-04T15:15:12.657Z,67.35
2023-02-04T15:17:40.518Z,67.18
2023-02-04T15:20:12.498Z,67.28
2023-02-04T15:22:40.622Z,67.92
2023-02-04T15:25:08.469Z,67.56
2023-02-04T15:27:36.302Z,67.75
2023-02-04T15:30:04.944Z,67.42
2023-02-04T15:32:32.917Z,67.67
2023-02-04T15:35:00.767Z,67.72
2023-02-04T15:37:30.211Z,67.90
2023-02-04T15:39:58.057Z,67.85
2023-02-04T15:42:25.982Z,68.02
2023-02-04T15:44:54.270Z,68.08
2023-02-04T15:47:22.099Z,68.12
2023-02-04T15:49:49.931Z,68.17
2023-02-04T15:52:24.622Z,67.82
2023-02-04T15:54:54.517Z,68.24
2023-02-04T15:57:22.708Z,68.36
2023-02-04T15:59:50.539Z,68.44
2023-02-04T16:02:18.481Z,68.24
2023-02-04T16:04:48.084Z,68.26
2023-02-04T16:07:15.923Z,68.60
2023-02-04T16:09:44.378Z,68.79
2023-02-04T16:12:13.713Z,68.91
2023-02-04T16:14:41.534Z,69.14
2023-02-04T16:17:09.763Z,69.14
2023-02-04T16:19:37.670Z,69.63
2023-02-04T16:22:06.325Z,69.13
2023-02-04T16:24:34.394Z,69.70
2023-02-04T16:27:02.458Z,69.42
2023-02-04T16:29:31.655Z,69.67
2023-02-04T16:31:59.704Z,69.67
2023-02-04T16:34:28.314Z,70.03
2023-02-04T16:36:56.294Z,69.96
2023-02-04T16:39:24.535Z,70.37
2023-02-04T16:41:53.001Z,70.25
2023-02-04T16:44:20.824Z,70.43
2023-02-04T16:46:50.856Z,70.56
2023-02-04T16:49:18.894Z,70.23
2023-02-04T16:51:46.732Z,70.43
2023-02-04T16:54:14.558Z,70.56
2023-02-04T16:56:42.464Z,70.50
2023-02-04T16:59:10.334Z,70.84
2023-02-04T17:01:38.228Z,70.80
2023-02-04T17:04:07.660Z,70.96
2023-02-04T17:06:35.901Z,71.12
2023-02-04T17:09:03.783Z,71.75
2023-02-04T17:11:32.490Z,71.82
2023-02-04T17:14:01.762Z,71.98
2023-02-04T17:16:30.705Z,72.04
2023-02-04T17:18:58.970Z,72.12
2023-02-04T17:21:29.578Z,72.02
2023-02-04T17:24:00.356Z,72.42
2023-02-04T17:26:28.304Z,71.96
2023-02-04T17:28:56.193Z,72.12
2023-02-04T17:31:24.090Z,72.90
2023-02-04T17:33:51.983Z,72.69
2023-02-04T17:36:19.787Z,72.44
2023-02-04T17:38:49.159Z,72.69
2023-02-04T17:41:17.616Z,72.85
2023-02-04T17:43:45.479Z,73.24
2023-02-04T17:46:13.459Z,73.27
2023-02-04T17:48:41.575Z,72.94
2023-02-04T17:51:09.894Z,72.90
2023-02-04T17:53:40.339Z,73.06
2023-02-04T17:56:11.968Z,73.37
2023-02-04T17:58:40.549Z,73.45
2023-02-04T18:01:12.569Z,73.49
2023-02-04T18:03:42.643Z,74.01
2023-02-04T18:06:20.216Z,74.13
2023-02-04T18:08:48.374Z,74.75
2023-02-04T18:11:20.590Z,74.53
2023-02-04T18:13:49.697Z,74.68
2023-02-04T18:16:28.468Z,74.75
2023-02-04T18:18:58.017Z,74.57
2023-02-04T18:21:27.425Z,74.49
2023-02-04T18:24:03.790Z,75.03
2023-02-04T18:26:34.485Z,74.81
2023-02-04T18:29:17.947Z,75.16
2023-02-04T18:31:51.612Z,75.16
2023-02-04T18:34:24.389Z,75.13
2023-02-04T18:36:53.000Z,75.46
2023-02-04T18:39:22.508Z,75.32
2023-02-04T18:41:52.867Z,76.06
2023-02-04T18:44:31.420Z,75.88
2023-02-04T18:47:00.904Z,75.78
2023-02-04T18:49:30.051Z,75.71
2023-02-04T18:51:59.652Z,75.80
2023-02-04T18:54:36.393Z,76.25
2023-02-04T18:57:35.209Z,76.19
2023-02-04T19:00:32.563Z,76.06
2023-02-04T19:03:06.242Z,76.32
2023-02-04T19:05:36.627Z,76.34
2023-02-04T19:08:24.595Z,76.21
2023-02-04T19:10:53.869Z,76.29
2023-02-04T19:13:26.057Z,76.50
2023-02-04T19:15:58.772Z,76.52
2023-02-04T19:18:29.546Z,76.94
2023-02-04T19:21:09.830Z,76.93
2023-02-04T19:23:38.944Z,76.92
2023-02-04T19:26:26.258Z,77.38
2023-02-04T19:28:55.825Z,77.62
2023-02-04T19:31:24.172Z,78.12
2023-02-04T19:33:53.564Z,78.42
2023-02-04T19:36:33.958Z,78.90
2023-02-04T19:39:03.914Z,78.41
2023-02-04T19:41:38.472Z,79.09
2023-02-04T19:44:33.855Z,79.40
2023-02-04T19:47:24.104Z,79.21
2023-02-04T19:49:52.210Z,78.96
2023-02-04T19:52:31.202Z,81.47
2023-02-04T19:55:23.903Z,81.44
2023-02-04T19:57:54.222Z,81.20
2023-02-04T20:00:38.229Z,80.86
2023-02-04T20:03:16.120Z,80.89
2023-02-04T20:05:44.421Z,80.61
2023-02-04T20:08:43.881Z,80.77
2023-02-04T20:11:45.273Z,80.71
2023-02-04T20:14:28.926Z,80.51
2023-02-04T20:17:00.274Z,80.45
2023-02-04T20:19:34.752Z,80.45
2023-02-04T20:22:31.081Z,80.30
2023-02-04T20:25:09.311Z,80.30
2023-02-04T20:27:39.247Z,80.56
2023-02-04T20:30:24.636Z,80.32
2023-02-04T20:32:56.634Z,80.36
2023-02-04T20:35:55.925Z,80.57
2023-02-04T20:38:23.922Z,80.45
2023-02-04T20:40:51.815Z,80.54
2023-02-04T20:43:24.273Z,80.77
2023-02-04T20:45:56.189Z,80.80
2023-02-04T20:48:32.776Z,81.06
2023-02-04T20:51:03.922Z,81.12
2023-02-04T20:53:40.121Z,81.24
2023-02-04T20:56:23.612Z,80.92
2023-02-04T20:58:52.832Z,81.93
2023-02-04T21:01:26.465Z,81.81
2023-02-04T21:03:57.949Z,81.94
2023-02-04T21:06:28.272Z,82.27
2023-02-04T21:08:57.574Z,82.11
2023-02-04T21:11:26.336Z,81.92
2023-02-04T21:13:55.555Z,81.84
2023-02-04T21:16:23.478Z,82.00
2023-02-04T21:18:51.655Z,82.20
2023-02-04T21:21:24.509Z,82.20
2023-02-04T21:23:52.533Z,82.07
2023-02-04T21:26:20.566Z,82.32
2023-02-04T21:28:48.452Z,82.14
2023-02-04T21:31:16.523Z,82.18
2023-02-04T21:33:44.559Z,82.29
2023-02-04T21:36:12.503Z,82.28
2023-02-04T21:38:41.831Z,82.17
2023-02-04T21:41:09.727Z,82.34
2023-02-04T21:43:37.541Z,82.29
2023-02-04T21:46:05.781Z,82.17
2023-02-04T21:48:33.730Z,82.24
2023-02-04T21:51:01.574Z,82.16
2023-02-04T21:53:29.550Z,82.15
2023-02-04T21:56:00.822Z,82.01
2023-02-04T21:58:28.640Z,82.31
2023-02-04T22:00:59.025Z,82.55
2023-02-04T22:03:26.918Z,82.47
2023-02-04T22:05:55.118Z,82.37
2023-02-04T22:08:23.461Z,82.34
2023-02-04T22:10:57.157Z,82.44
2023-02-04T22:13:26.636Z,82.18
2023-02-04T22:15:54.548Z,82.18
2023-02-04T22:18:22.436Z,82.00
2023-02-04T22:20:50.574Z,82.20
2023-02-04T22:23:18.380Z,82.17
2023-02-04T22:25:46.167Z,82.10
2023-02-04T22:28:14.399Z,82.11
2023-02-04T22:30:43.695Z,82.03
2023-02-04T22:33:14.090Z,81.84
2023-02-04T22:35:42.307Z,82.05
2023-02-04T22:38:10.149Z,81.87
2023-02-04T22:40:38.011Z,82.03
2023-02-04T22:43:06.037Z,82.05
2023-02-04T22:45:34.112Z,81.87
2023-02-04T22:48:03.566Z,81.97
2023-02-04T22:50:31.674Z,82.05
2023-02-04T22:52:59.491Z,81.79
2023-02-04T22:55:27.390Z,81.64
2023-02-04T22:57:55.612Z,81.64
2023-02-04T23:00:23.830Z,81.68
2023-02-04T23:02:51.703Z,81.53
2023-02-04T23:05:21.090Z,81.51
2023-02-04T23:07:48.968Z,81.41
2023-02-04T23:10:16.938Z,81.59
2023-02-04T23:12:45.026Z,81.50
2023-02-04T23:15:13.477Z,81.48
2023-02-04T23:17:41.348Z,81.75
2023-02-04T23:20:09.811Z,81.50
2023-02-04T23:22:39.134Z,81.43
2023-02-04T23:25:07.773Z,81.62
2023-02-04T23:27:35.820Z,81.78
2023-02-04T23:30:05.801Z,81.49
2023-02-04T23:32:34.332Z,81.53
2023-02-04T23:35:02.166Z,81.51
2023-02-04T23:37:30.094Z,81.63
2023-02-04T23:39:59.421Z,81.70
2023-02-04T23:42:27.456Z,81.56
2023-02-04T23:44:55.293Z,81.51
2023-02-04T23:47:23.307Z,81.43
2023-02-04T23:49:51.243Z,81.56
2023-02-04T23:52:19.098Z,81.56
2023-02-04T23:54:46.983Z,81.47
2023-02-04T23:57:16.272Z,81.61
2023-02-04T23:59:44.081Z,81.84
